sensor_id;sensor_type;location;lat;lon;timestamp;P1;durP1;ratioP1;P2;durP2;ratioP2
78308;SDS011;67566;42.022;21.356;2023-12-07T00:02:07;100.07;;;63.95;;
78308;SDS011;67566;42.022;21.356;2023-12-07T00:04:32;109.28;;;65.97;;
78308;SDS011;67566;42.022;21.356;2023-12-07T00:06:58;82.90;;;51.90;;
78308;SDS011;67566;42.022;21.356;2023-12-07T00:09:23;70.03;;;44.30;;
78308;SDS011;67566;42.022;21.356;2023-12-07T00:11:49;78.20;;;45.85;;
78308;SDS011;67566;42.022;21.356;2023-12-07T00:14:15;68.55;;;41.78;;
78308;SDS011;67566;42.022;21.356;2023-12-07T00:16:40;64.07;;;37.10;;
78308;SDS011;67566;42.022;21.356;2023-12-07T00:19:06;83.25;;;49.75;;
78308;SDS011;67566;42.022;21.356;2023-12-07T00:21:34;113.60;;;64.65;;
78308;SDS011;67566;42.022;21.356;2023-12-07T00:23:59;86.03;;;51.17;;
78308;SDS011;67566;42.022;21.356;2023-12-07T00:26:26;96.57;;;52.75;;
78308;SDS011;67566;42.022;21.356;2023-12-07T00:28:51;75.10;;;45.83;;
78308;SDS011;67566;42.022;21.356;2023-12-07T00:31:17;69.40;;;42.00;;
78308;SDS011;67566;42.022;21.356;2023-12-07T00:33:42;74.45;;;46.83;;
78308;SDS011;67566;42.022;21.356;2023-12-07T00:36:10;63.08;;;37.30;;
78308;SDS011;67566;42.022;21.356;2023-12-07T00:38:37;78.57;;;48.72;;
78308;SDS011;67566;42.022;21.356;2023-12-07T00:41:02;72.38;;;44.17;;
78308;SDS011;67566;42.022;21.356;2023-12-07T00:43:28;78.22;;;46.88;;
78308;SDS011;67566;42.022;21.356;2023-12-07T00:45:59;80.55;;;49.10;;
78308;SDS011;67566;42.022;21.356;2023-12-07T00:48:25;76.05;;;46.80;;
78308;SDS011;67566;42.022;21.356;2023-12-07T00:50:50;79.38;;;48.95;;
78308;SDS011;67566;42.022;21.356;2023-12-07T00:53:16;81.38;;;48.92;;
78308;SDS011;67566;42.022;21.356;2023-12-07T00:55:42;75.13;;;45.17;;
78308;SDS011;67566;42.022;21.356;2023-12-07T00:58:07;78.20;;;46.03;;
78308;SDS011;67566;42.022;21.356;2023-12-07T01:00:33;76.57;;;47.58;;
78308;SDS011;67566;42.022;21.356;2023-12-07T01:02:58;74.45;;;46.83;;
78308;SDS011;67566;42.022;21.356;2023-12-07T01:05:24;75.93;;;45.88;;
78308;SDS011;67566;42.022;21.356;2023-12-07T01:07:50;75.72;;;44.05;;
78308;SDS011;67566;42.022;21.356;2023-12-07T01:10:16;68.70;;;40.70;;
78308;SDS011;67566;42.022;21.356;2023-12-07T01:12:41;75.78;;;45.42;;
78308;SDS011;67566;42.022;21.356;2023-12-07T01:15:07;72.85;;;44.35;;
78308;SDS011;67566;42.022;21.356;2023-12-07T01:17:33;72.00;;;43.88;;
78308;SDS011;67566;42.022;21.356;2023-12-07T01:19:58;74.72;;;44.05;;
78308;SDS011;67566;42.022;21.356;2023-12-07T01:22:24;67.95;;;40.47;;
78308;SDS011;67566;42.022;21.356;2023-12-07T01:24:49;67.28;;;41.95;;
78308;SDS011;67566;42.022;21.356;2023-12-07T01:27:15;73.43;;;42.30;;
78308;SDS011;67566;42.022;21.356;2023-12-07T01:29:41;70.70;;;42.08;;
78308;SDS011;67566;42.022;21.356;2023-12-07T01:32:06;72.40;;;43.65;;
78308;SDS011;67566;42.022;21.356;2023-12-07T01:34:32;70.32;;;43.13;;
78308;SDS011;67566;42.022;21.356;2023-12-07T01:36:58;71.45;;;44.40;;
78308;SDS011;67566;42.022;21.356;2023-12-07T01:39:23;73.72;;;42.55;;
78308;SDS011;67566;42.022;21.356;2023-12-07T01:41:49;73.18;;;43.58;;
78308;SDS011;67566;42.022;21.356;2023-12-07T01:44:16;72.55;;;43.90;;
78308;SDS011;67566;42.022;21.356;2023-12-07T01:46:42;67.80;;;39.90;;
78308;SDS011;67566;42.022;21.356;2023-12-07T01:49:08;63.75;;;37.42;;
78308;SDS011;67566;42.022;21.356;2023-12-07T01:51:34;54.78;;;35.30;;
78308;SDS011;67566;42.022;21.356;2023-12-07T01:54:00;54.83;;;32.33;;
78308;SDS011;67566;42.022;21.356;2023-12-07T01:56:26;64.03;;;37.20;;
78308;SDS011;67566;42.022;21.356;2023-12-07T01:58:52;58.45;;;34.38;;
78308;SDS011;67566;42.022;21.356;2023-12-07T02:01:18;58.53;;;34.72;;
78308;SDS011;67566;42.022;21.356;2023-12-07T02:03:44;51.60;;;32.22;;
78308;SDS011;67566;42.022;21.356;2023-12-07T02:06:09;52.20;;;31.42;;
78308;SDS011;67566;42.022;21.356;2023-12-07T02:08:35;52.97;;;32.22;;
78308;SDS011;67566;42.022;21.356;2023-12-07T02:11:06;51.35;;;31.85;;
78308;SDS011;67566;42.022;21.356;2023-12-07T02:13:34;55.95;;;34.28;;
78308;SDS011;67566;42.022;21.356;2023-12-07T02:16:01;59.25;;;35.67;;
78308;SDS011;67566;42.022;21.356;2023-12-07T02:18:40;62.05;;;36.33;;
78308;SDS011;67566;42.022;21.356;2023-12-07T02:23:43;60.75;;;34.75;;
78308;SDS011;67566;42.022;21.356;2023-12-07T02:26:12;53.75;;;32.35;;
78308;SDS011;67566;42.022;21.356;2023-12-07T02:28:38;47.78;;;29.17;;
78308;SDS011;67566;42.022;21.356;2023-12-07T02:31:04;48.33;;;29.92;;
78308;SDS011;67566;42.022;21.356;2023-12-07T02:33:29;45.28;;;30.15;;
78308;SDS011;67566;42.022;21.356;2023-12-07T02:35:55;45.47;;;27.95;;
78308;SDS011;67566;42.022;21.356;2023-12-07T02:38:21;47.30;;;28.98;;
78308;SDS011;67566;42.022;21.356;2023-12-07T02:40:51;48.28;;;28.92;;
78308;SDS011;67566;42.022;21.356;2023-12-07T02:43:18;45.17;;;27.00;;
78308;SDS011;67566;42.022;21.356;2023-12-07T02:45:45;45.83;;;28.38;;
78308;SDS011;67566;42.022;21.356;2023-12-07T02:48:11;40.40;;;24.60;;
78308;SDS011;67566;42.022;21.356;2023-12-07T02:50:36;45.05;;;26.92;;
78308;SDS011;67566;42.022;21.356;2023-12-07T02:53:02;40.10;;;22.90;;
78308;SDS011;67566;42.022;21.356;2023-12-07T02:55:27;40.40;;;23.73;;
78308;SDS011;67566;42.022;21.356;2023-12-07T02:57:53;35.20;;;20.52;;
78308;SDS011;67566;42.022;21.356;2023-12-07T03:00:18;33.72;;;20.92;;
78308;SDS011;67566;42.022;21.356;2023-12-07T03:02:46;38.47;;;22.88;;
78308;SDS011;67566;42.022;21.356;2023-12-07T03:05:13;38.45;;;22.80;;
78308;SDS011;67566;42.022;21.356;2023-12-07T03:07:38;37.47;;;21.92;;
78308;SDS011;67566;42.022;21.356;2023-12-07T03:10:04;34.13;;;20.83;;
78308;SDS011;67566;42.022;21.356;2023-12-07T03:12:30;35.70;;;21.38;;
78308;SDS011;67566;42.022;21.356;2023-12-07T03:14:56;34.08;;;21.25;;
78308;SDS011;67566;42.022;21.356;2023-12-07T03:17:21;34.35;;;19.98;;
78308;SDS011;67566;42.022;21.356;2023-12-07T03:19:47;29.65;;;18.73;;
78308;SDS011;67566;42.022;21.356;2023-12-07T03:22:12;37.45;;;21.80;;
78308;SDS011;67566;42.022;21.356;2023-12-07T03:24:38;37.88;;;22.45;;
78308;SDS011;67566;42.022;21.356;2023-12-07T03:27:05;35.28;;;22.00;;
78308;SDS011;67566;42.022;21.356;2023-12-07T03:29:31;39.97;;;23.75;;
78308;SDS011;67566;42.022;21.356;2023-12-07T03:31:57;36.20;;;22.80;;
78308;SDS011;67566;42.022;21.356;2023-12-07T03:34:23;47.90;;;27.48;;
78308;SDS011;67566;42.022;21.356;2023-12-07T03:36:49;44.85;;;26.45;;
78308;SDS011;67566;42.022;21.356;2023-12-07T03:39:15;49.28;;;28.30;;
78308;SDS011;67566;42.022;21.356;2023-12-07T03:41:43;48.47;;;27.85;;
78308;SDS011;67566;42.022;21.356;2023-12-07T03:44:09;51.50;;;28.90;;
78308;SDS011;67566;42.022;21.356;2023-12-07T03:46:35;53.05;;;30.67;;
78308;SDS011;67566;42.022;21.356;2023-12-07T03:49:00;55.55;;;31.50;;
78308;SDS011;67566;42.022;21.356;2023-12-07T03:51:26;50.10;;;28.77;;
78308;SDS011;67566;42.022;21.356;2023-12-07T03:53:53;56.80;;;29.95;;
78308;SDS011;67566;42.022;21.356;2023-12-07T03:56:23;53.10;;;31.08;;
78308;SDS011;67566;42.022;21.356;2023-12-07T03:58:49;47.85;;;28.33;;
78308;SDS011;67566;42.022;21.356;2023-12-07T04:01:15;47.55;;;28.13;;
78308;SDS011;67566;42.022;21.356;2023-12-07T04:03:40;52.15;;;28.98;;
78308;SDS011;67566;42.022;21.356;2023-12-07T04:06:06;62.92;;;31.20;;
78308;SDS011;67566;42.022;21.356;2023-12-07T04:08:31;51.10;;;29.13;;
78308;SDS011;67566;42.022;21.356;2023-12-07T04:10:57;49.47;;;27.27;;
78308;SDS011;67566;42.022;21.356;2023-12-07T04:13:22;49.33;;;28.00;;
78308;SDS011;67566;42.022;21.356;2023-12-07T04:15:48;46.70;;;27.30;;
78308;SDS011;67566;42.022;21.356;2023-12-07T04:18:13;48.33;;;27.33;;
78308;SDS011;67566;42.022;21.356;2023-12-07T04:20:39;45.67;;;26.10;;
78308;SDS011;67566;42.022;21.356;2023-12-07T04:23:04;45.78;;;25.23;;
78308;SDS011;67566;42.022;21.356;2023-12-07T04:25:30;51.42;;;31.23;;
78308;SDS011;67566;42.022;21.356;2023-12-07T04:27:55;41.92;;;27.27;;
78308;SDS011;67566;42.022;21.356;2023-12-07T04:30:21;49.65;;;27.27;;
78308;SDS011;67566;42.022;21.356;2023-12-07T04:32:46;39.00;;;21.65;;
78308;SDS011;67566;42.022;21.356;2023-12-07T04:35:12;37.60;;;21.67;;
78308;SDS011;67566;42.022;21.356;2023-12-07T04:37:37;34.33;;;19.98;;
78308;SDS011;67566;42.022;21.356;2023-12-07T04:40:03;34.55;;;19.67;;
78308;SDS011;67566;42.022;21.356;2023-12-07T04:42:30;31.58;;;19.27;;
78308;SDS011;67566;42.022;21.356;2023-12-07T04:44:55;37.95;;;24.45;;
78308;SDS011;67566;42.022;21.356;2023-12-07T04:47:21;33.92;;;22.23;;
78308;SDS011;67566;42.022;21.356;2023-12-07T04:49:47;30.83;;;19.85;;
78308;SDS011;67566;42.022;21.356;2023-12-07T04:52:13;36.00;;;23.10;;
78308;SDS011;67566;42.022;21.356;2023-12-07T04:54:38;39.63;;;23.35;;
78308;SDS011;67566;42.022;21.356;2023-12-07T04:57:04;44.13;;;24.88;;
78308;SDS011;67566;42.022;21.356;2023-12-07T04:59:29;53.40;;;30.33;;
78308;SDS011;67566;42.022;21.356;2023-12-07T05:01:55;43.28;;;24.98;;
78308;SDS011;67566;42.022;21.356;2023-12-07T05:04:20;47.78;;;24.50;;
78308;SDS011;67566;42.022;21.356;2023-12-07T05:06:46;44.95;;;24.17;;
78308;SDS011;67566;42.022;21.356;2023-12-07T05:09:11;47.38;;;24.15;;
78308;SDS011;67566;42.022;21.356;2023-12-07T05:11:37;65.30;;;30.23;;
78308;SDS011;67566;42.022;21.356;2023-12-07T05:14:02;68.93;;;33.67;;
78308;SDS011;67566;42.022;21.356;2023-12-07T05:16:28;49.42;;;26.65;;
78308;SDS011;67566;42.022;21.356;2023-12-07T05:18:54;41.08;;;23.50;;
78308;SDS011;67566;42.022;21.356;2023-12-07T05:21:20;434.45;;;210.15;;
78308;SDS011;67566;42.022;21.356;2023-12-07T05:23:46;134.30;;;85.55;;
78308;SDS011;67566;42.022;21.356;2023-12-07T05:26:11;40.75;;;23.48;;
78308;SDS011;67566;42.022;21.356;2023-12-07T05:28:37;30.60;;;18.65;;
78308;SDS011;67566;42.022;21.356;2023-12-07T05:31:03;30.27;;;18.13;;
78308;SDS011;67566;42.022;21.356;2023-12-07T05:33:29;33.13;;;18.65;;
78308;SDS011;67566;42.022;21.356;2023-12-07T05:35:54;33.00;;;16.85;;
78308;SDS011;67566;42.022;21.356;2023-12-07T05:38:20;37.13;;;19.02;;
78308;SDS011;67566;42.022;21.356;2023-12-07T05:40:45;31.17;;;16.77;;
78308;SDS011;67566;42.022;21.356;2023-12-07T05:43:11;38.15;;;20.20;;
78308;SDS011;67566;42.022;21.356;2023-12-07T05:45:36;38.67;;;17.73;;
78308;SDS011;67566;42.022;21.356;2023-12-07T05:48:02;38.03;;;20.40;;
78308;SDS011;67566;42.022;21.356;2023-12-07T05:50:27;35.80;;;17.58;;
78308;SDS011;67566;42.022;21.356;2023-12-07T05:52:53;37.20;;;19.75;;
78308;SDS011;67566;42.022;21.356;2023-12-07T05:55:20;35.25;;;17.40;;
78308;SDS011;67566;42.022;21.356;2023-12-07T05:57:45;41.45;;;21.02;;
78308;SDS011;67566;42.022;21.356;2023-12-07T06:00:11;36.45;;;19.55;;
78308;SDS011;67566;42.022;21.356;2023-12-07T06:02:37;39.38;;;21.35;;
78308;SDS011;67566;42.022;21.356;2023-12-07T06:05:03;43.83;;;26.83;;
78308;SDS011;67566;42.022;21.356;2023-12-07T06:07:30;36.80;;;18.10;;
78308;SDS011;67566;42.022;21.356;2023-12-07T06:09:55;44.55;;;25.08;;
78308;SDS011;67566;42.022;21.356;2023-12-07T06:12:21;34.08;;;18.55;;
78308;SDS011;67566;42.022;21.356;2023-12-07T06:14:50;34.53;;;18.73;;
78308;SDS011;67566;42.022;21.356;2023-12-07T06:17:15;31.65;;;15.73;;
78308;SDS011;67566;42.022;21.356;2023-12-07T06:19:41;37.20;;;20.25;;
78308;SDS011;67566;42.022;21.356;2023-12-07T06:22:07;41.90;;;19.35;;
78308;SDS011;67566;42.022;21.356;2023-12-07T06:24:33;38.70;;;18.92;;
78308;SDS011;67566;42.022;21.356;2023-12-07T06:26:59;35.58;;;19.90;;
78308;SDS011;67566;42.022;21.356;2023-12-07T06:29:27;38.55;;;18.73;;
78308;SDS011;67566;42.022;21.356;2023-12-07T06:31:52;38.90;;;18.35;;
78308;SDS011;67566;42.022;21.356;2023-12-07T06:34:18;49.67;;;24.17;;
78308;SDS011;67566;42.022;21.356;2023-12-07T06:36:44;32.33;;;17.70;;
78308;SDS011;67566;42.022;21.356;2023-12-07T06:39:10;32.55;;;15.27;;
78308;SDS011;67566;42.022;21.356;2023-12-07T06:41:35;20.85;;;10.77;;
78308;SDS011;67566;42.022;21.356;2023-12-07T06:44:01;20.45;;;11.45;;
78308;SDS011;67566;42.022;21.356;2023-12-07T06:46:27;19.58;;;11.13;;
78308;SDS011;67566;42.022;21.356;2023-12-07T06:48:52;13.57;;;8.50;;
78308;SDS011;67566;42.022;21.356;2023-12-07T06:51:18;19.08;;;9.68;;
78308;SDS011;67566;42.022;21.356;2023-12-07T06:53:43;16.33;;;10.13;;
78308;SDS011;67566;42.022;21.356;2023-12-07T06:56:09;12.80;;;9.55;;
78308;SDS011;67566;42.022;21.356;2023-12-07T06:58:34;18.13;;;8.95;;
78308;SDS011;67566;42.022;21.356;2023-12-07T07:01:00;18.42;;;10.77;;
78308;SDS011;67566;42.022;21.356;2023-12-07T07:03:25;16.85;;;9.88;;
78308;SDS011;67566;42.022;21.356;2023-12-07T07:05:52;10.65;;;6.95;;
78308;SDS011;67566;42.022;21.356;2023-12-07T07:08:18;10.82;;;5.88;;
78308;SDS011;67566;42.022;21.356;2023-12-07T07:10:44;11.32;;;7.43;;
78308;SDS011;67566;42.022;21.356;2023-12-07T07:13:10;16.48;;;9.70;;
78308;SDS011;67566;42.022;21.356;2023-12-07T07:15:35;10.80;;;6.68;;
78308;SDS011;67566;42.022;21.356;2023-12-07T07:18:01;12.32;;;7.40;;
78308;SDS011;67566;42.022;21.356;2023-12-07T07:20:26;13.05;;;7.82;;
78308;SDS011;67566;42.022;21.356;2023-12-07T07:22:52;10.15;;;6.68;;
78308;SDS011;67566;42.022;21.356;2023-12-07T07:25:17;19.08;;;10.68;;
78308;SDS011;67566;42.022;21.356;2023-12-07T07:27:47;16.63;;;9.35;;
78308;SDS011;67566;42.022;21.356;2023-12-07T07:30:13;17.90;;;8.38;;
78308;SDS011;67566;42.022;21.356;2023-12-07T07:32:39;7.88;;;4.82;;
78308;SDS011;67566;42.022;21.356;2023-12-07T07:35:05;8.40;;;5.75;;
78308;SDS011;67566;42.022;21.356;2023-12-07T07:37:31;8.88;;;4.85;;
78308;SDS011;67566;42.022;21.356;2023-12-07T07:39:56;9.13;;;5.60;;
78308;SDS011;67566;42.022;21.356;2023-12-07T07:42:22;7.40;;;4.97;;
78308;SDS011;67566;42.022;21.356;2023-12-07T07:44:47;7.97;;;5.35;;
78308;SDS011;67566;42.022;21.356;2023-12-07T07:47:13;12.38;;;7.95;;
78308;SDS011;67566;42.022;21.356;2023-12-07T07:49:38;12.85;;;7.50;;
78308;SDS011;67566;42.022;21.356;2023-12-07T07:52:04;12.25;;;6.78;;
78308;SDS011;67566;42.022;21.356;2023-12-07T07:54:30;8.82;;;6.03;;
78308;SDS011;67566;42.022;21.356;2023-12-07T07:56:56;10.55;;;6.20;;
78308;SDS011;67566;42.022;21.356;2023-12-07T07:59:21;12.05;;;7.38;;
78308;SDS011;67566;42.022;21.356;2023-12-07T08:01:47;11.35;;;5.88;;
78308;SDS011;67566;42.022;21.356;2023-12-07T08:04:12;10.15;;;4.93;;
78308;SDS011;67566;42.022;21.356;2023-12-07T08:06:38;9.38;;;4.15;;
78308;SDS011;67566;42.022;21.356;2023-12-07T08:09:03;7.70;;;4.68;;
78308;SDS011;67566;42.022;21.356;2023-12-07T08:11:29;8.98;;;5.45;;
78308;SDS011;67566;42.022;21.356;2023-12-07T08:13:55;8.48;;;6.10;;
78308;SDS011;67566;42.022;21.356;2023-12-07T08:16:20;17.67;;;9.38;;
78308;SDS011;67566;42.022;21.356;2023-12-07T08:18:48;12.68;;;7.95;;
78308;SDS011;67566;42.022;21.356;2023-12-07T08:21:21;33.60;;;19.52;;
78308;SDS011;67566;42.022;21.356;2023-12-07T08:23:47;31.33;;;17.77;;
78308;SDS011;67566;42.022;21.356;2023-12-07T08:26:13;22.15;;;13.90;;
78308;SDS011;67566;42.022;21.356;2023-12-07T08:28:40;15.20;;;8.52;;
78308;SDS011;67566;42.022;21.356;2023-12-07T08:31:06;25.17;;;11.75;;
78308;SDS011;67566;42.022;21.356;2023-12-07T08:33:32;8.63;;;5.53;;
78308;SDS011;67566;42.022;21.356;2023-12-07T08:36:01;5.97;;;3.90;;
78308;SDS011;67566;42.022;21.356;2023-12-07T08:38:27;5.78;;;4.00;;
78308;SDS011;67566;42.022;21.356;2023-12-07T08:40:53;3.95;;;2.97;;
78308;SDS011;67566;42.022;21.356;2023-12-07T08:43:20;6.00;;;3.60;;
78308;SDS011;67566;42.022;21.356;2023-12-07T08:45:48;6.50;;;3.70;;
78308;SDS011;67566;42.022;21.356;2023-12-07T08:48:13;7.97;;;3.90;;
78308;SDS011;67566;42.022;21.356;2023-12-07T08:50:39;4.75;;;3.50;;
78308;SDS011;67566;42.022;21.356;2023-12-07T08:53:05;6.57;;;4.47;;
78308;SDS011;67566;42.022;21.356;2023-12-07T08:55:31;4.80;;;3.17;;
78308;SDS011;67566;42.022;21.356;2023-12-07T08:57:56;6.80;;;4.47;;
78308;SDS011;67566;42.022;21.356;2023-12-07T09:00:22;13.80;;;8.88;;
78308;SDS011;67566;42.022;21.356;2023-12-07T09:02:50;9.52;;;6.15;;
78308;SDS011;67566;42.022;21.356;2023-12-07T09:05:16;5.35;;;3.75;;
78308;SDS011;67566;42.022;21.356;2023-12-07T09:07:42;6.28;;;4.78;;
78308;SDS011;67566;42.022;21.356;2023-12-07T09:10:07;7.38;;;4.53;;
78308;SDS011;67566;42.022;21.356;2023-12-07T09:12:33;13.25;;;5.50;;
78308;SDS011;67566;42.022;21.356;2023-12-07T09:15:01;7.57;;;4.68;;
78308;SDS011;67566;42.022;21.356;2023-12-07T09:17:27;8.05;;;4.70;;
78308;SDS011;67566;42.022;21.356;2023-12-07T09:19:53;8.38;;;4.75;;
78308;SDS011;67566;42.022;21.356;2023-12-07T09:22:19;6.07;;;3.75;;
78308;SDS011;67566;42.022;21.356;2023-12-07T09:24:45;7.72;;;4.22;;
78308;SDS011;67566;42.022;21.356;2023-12-07T09:27:11;8.98;;;5.72;;
78308;SDS011;67566;42.022;21.356;2023-12-07T09:29:38;7.57;;;4.40;;
78308;SDS011;67566;42.022;21.356;2023-12-07T09:32:03;8.82;;;4.38;;
78308;SDS011;67566;42.022;21.356;2023-12-07T09:34:30;9.90;;;5.10;;
78308;SDS011;67566;42.022;21.356;2023-12-07T09:37:08;6.25;;;4.25;;
78308;SDS011;67566;42.022;21.356;2023-12-07T09:39:34;5.63;;;3.42;;
78308;SDS011;67566;42.022;21.356;2023-12-07T09:42:00;7.70;;;4.65;;
78308;SDS011;67566;42.022;21.356;2023-12-07T09:44:26;5.88;;;3.92;;
78308;SDS011;67566;42.022;21.356;2023-12-07T09:46:52;5.88;;;3.47;;
78308;SDS011;67566;42.022;21.356;2023-12-07T09:49:18;5.95;;;3.78;;
78308;SDS011;67566;42.022;21.356;2023-12-07T09:51:44;9.57;;;5.85;;
78308;SDS011;67566;42.022;21.356;2023-12-07T09:54:11;14.80;;;7.97;;
78308;SDS011;67566;42.022;21.356;2023-12-07T09:56:37;7.20;;;4.63;;
78308;SDS011;67566;42.022;21.356;2023-12-07T09:59:03;7.15;;;5.05;;
78308;SDS011;67566;42.022;21.356;2023-12-07T10:01:29;11.00;;;6.45;;
78308;SDS011;67566;42.022;21.356;2023-12-07T10:06:43;10.93;;;5.22;;
78308;SDS011;67566;42.022;21.356;2023-12-07T10:09:15;12.57;;;6.20;;
78308;SDS011;67566;42.022;21.356;2023-12-07T10:11:41;8.65;;;4.47;;
78308;SDS011;67566;42.022;21.356;2023-12-07T10:14:09;14.07;;;6.40;;
78308;SDS011;67566;42.022;21.356;2023-12-07T10:16:35;14.75;;;10.02;;
78308;SDS011;67566;42.022;21.356;2023-12-07T10:19:14;14.57;;;8.88;;
78308;SDS011;67566;42.022;21.356;2023-12-07T10:21:43;15.35;;;8.40;;
78308;SDS011;67566;42.022;21.356;2023-12-07T10:24:09;12.98;;;8.30;;
78308;SDS011;67566;42.022;21.356;2023-12-07T10:26:35;15.27;;;9.60;;
78308;SDS011;67566;42.022;21.356;2023-12-07T10:29:05;6.97;;;4.78;;
78308;SDS011;67566;42.022;21.356;2023-12-07T10:31:31;5.35;;;3.08;;
78308;SDS011;67566;42.022;21.356;2023-12-07T10:33:58;19.85;;;11.48;;
78308;SDS011;67566;42.022;21.356;2023-12-07T10:36:23;10.07;;;6.38;;
78308;SDS011;67566;42.022;21.356;2023-12-07T10:38:49;15.90;;;9.55;;
78308;SDS011;67566;42.022;21.356;2023-12-07T10:41:21;16.00;;;10.43;;
78308;SDS011;67566;42.022;21.356;2023-12-07T10:43:52;16.98;;;10.10;;
78308;SDS011;67566;42.022;21.356;2023-12-07T10:46:21;11.25;;;6.68;;
78308;SDS011;67566;42.022;21.356;2023-12-07T10:48:47;8.55;;;5.25;;
78308;SDS011;67566;42.022;21.356;2023-12-07T10:51:38;9.00;;;5.63;;
78308;SDS011;67566;42.022;21.356;2023-12-07T10:54:16;12.50;;;8.20;;
78308;SDS011;67566;42.022;21.356;2023-12-07T10:56:47;9.85;;;6.03;;
78308;SDS011;67566;42.022;21.356;2023-12-07T10:59:16;6.85;;;4.68;;
78308;SDS011;67566;42.022;21.356;2023-12-07T11:01:42;7.20;;;4.68;;
78308;SDS011;67566;42.022;21.356;2023-12-07T11:04:12;7.72;;;5.25;;
78308;SDS011;67566;42.022;21.356;2023-12-07T11:06:42;6.13;;;4.07;;
78308;SDS011;67566;42.022;21.356;2023-12-07T11:09:17;17.13;;;8.50;;
78308;SDS011;67566;42.022;21.356;2023-12-07T11:11:54;8.73;;;5.38;;
78308;SDS011;67566;42.022;21.356;2023-12-07T11:14:24;17.10;;;7.63;;
78308;SDS011;67566;42.022;21.356;2023-12-07T11:16:52;15.40;;;7.95;;
78308;SDS011;67566;42.022;21.356;2023-12-07T11:22:08;18.35;;;8.85;;
78308;SDS011;67566;42.022;21.356;2023-12-07T11:24:35;21.17;;;8.90;;
78308;SDS011;67566;42.022;21.356;2023-12-07T11:27:01;7.45;;;4.85;;
78308;SDS011;67566;42.022;21.356;2023-12-07T11:29:30;46.75;;;17.15;;
78308;SDS011;67566;42.022;21.356;2023-12-07T11:32:02;6.07;;;3.75;;
78308;SDS011;67566;42.022;21.356;2023-12-07T11:34:35;7.18;;;4.85;;
78308;SDS011;67566;42.022;21.356;2023-12-07T11:37:02;8.60;;;5.57;;
78308;SDS011;67566;42.022;21.356;2023-12-07T11:39:28;8.52;;;5.90;;
78308;SDS011;67566;42.022;21.356;2023-12-07T11:42:05;11.98;;;6.60;;
78308;SDS011;67566;42.022;21.356;2023-12-07T11:44:33;9.35;;;6.22;;
78308;SDS011;67566;42.022;21.356;2023-12-07T11:47:02;9.00;;;5.57;;
78308;SDS011;67566;42.022;21.356;2023-12-07T11:49:28;7.75;;;4.95;;
78308;SDS011;67566;42.022;21.356;2023-12-07T11:51:55;9.80;;;6.15;;
78308;SDS011;67566;42.022;21.356;2023-12-07T11:54:24;9.40;;;6.72;;
78308;SDS011;67566;42.022;21.356;2023-12-07T11:56:54;15.27;;;10.30;;
78308;SDS011;67566;42.022;21.356;2023-12-07T11:59:21;16.17;;;9.40;;
78308;SDS011;67566;42.022;21.356;2023-12-07T12:01:47;11.30;;;6.85;;
78308;SDS011;67566;42.022;21.356;2023-12-07T12:04:17;33.30;;;17.67;;
78308;SDS011;67566;42.022;21.356;2023-12-07T12:06:43;15.25;;;7.78;;
78308;SDS011;67566;42.022;21.356;2023-12-07T12:09:11;29.42;;;13.70;;
78308;SDS011;67566;42.022;21.356;2023-12-07T12:11:37;12.52;;;7.53;;
78308;SDS011;67566;42.022;21.356;2023-12-07T12:14:08;24.73;;;12.52;;
78308;SDS011;67566;42.022;21.356;2023-12-07T12:16:34;97.15;;;46.78;;
78308;SDS011;67566;42.022;21.356;2023-12-07T12:19:00;49.15;;;25.63;;
78308;SDS011;67566;42.022;21.356;2023-12-07T12:21:26;15.40;;;9.27;;
78308;SDS011;67566;42.022;21.356;2023-12-07T12:23:51;12.68;;;6.93;;
78308;SDS011;67566;42.022;21.356;2023-12-07T12:26:17;17.27;;;9.98;;
78308;SDS011;67566;42.022;21.356;2023-12-07T12:28:43;12.82;;;8.07;;
78308;SDS011;67566;42.022;21.356;2023-12-07T12:31:10;7.70;;;5.93;;
78308;SDS011;67566;42.022;21.356;2023-12-07T12:33:37;19.42;;;12.18;;
78308;SDS011;67566;42.022;21.356;2023-12-07T12:36:06;7.82;;;5.53;;
78308;SDS011;67566;42.022;21.356;2023-12-07T12:38:32;28.67;;;17.02;;
78308;SDS011;67566;42.022;21.356;2023-12-07T12:40:58;27.50;;;17.48;;
78308;SDS011;67566;42.022;21.356;2023-12-07T12:43:24;19.05;;;12.07;;
78308;SDS011;67566;42.022;21.356;2023-12-07T12:45:50;9.80;;;6.75;;
78308;SDS011;67566;42.022;21.356;2023-12-07T12:48:15;8.80;;;5.07;;
78308;SDS011;67566;42.022;21.356;2023-12-07T12:50:41;7.43;;;5.13;;
78308;SDS011;67566;42.022;21.356;2023-12-07T12:53:08;11.63;;;6.50;;
78308;SDS011;67566;42.022;21.356;2023-12-07T12:55:39;9.43;;;6.32;;
78308;SDS011;67566;42.022;21.356;2023-12-07T12:58:06;13.60;;;7.45;;
78308;SDS011;67566;42.022;21.356;2023-12-07T13:00:33;22.33;;;17.58;;
78308;SDS011;67566;42.022;21.356;2023-12-07T13:03:00;15.68;;;11.82;;
78308;SDS011;67566;42.022;21.356;2023-12-07T13:05:26;8.20;;;5.93;;
78308;SDS011;67566;42.022;21.356;2023-12-07T13:07:52;16.90;;;8.45;;
78308;SDS011;67566;42.022;21.356;2023-12-07T13:10:18;10.40;;;8.32;;
78308;SDS011;67566;42.022;21.356;2023-12-07T13:12:44;9.32;;;6.25;;
78308;SDS011;67566;42.022;21.356;2023-12-07T13:15:10;8.73;;;5.90;;
78308;SDS011;67566;42.022;21.356;2023-12-07T13:17:37;11.35;;;6.60;;
78308;SDS011;67566;42.022;21.356;2023-12-07T13:20:05;12.18;;;5.70;;
78308;SDS011;67566;42.022;21.356;2023-12-07T13:22:33;16.52;;;8.63;;
78308;SDS011;67566;42.022;21.356;2023-12-07T13:24:58;10.50;;;5.85;;
78308;SDS011;67566;42.022;21.356;2023-12-07T13:27:24;12.52;;;6.75;;
78308;SDS011;67566;42.022;21.356;2023-12-07T13:29:50;11.07;;;6.50;;
78308;SDS011;67566;42.022;21.356;2023-12-07T13:32:15;15.32;;;8.55;;
78308;SDS011;67566;42.022;21.356;2023-12-07T13:34:41;10.73;;;6.38;;
78308;SDS011;67566;42.022;21.356;2023-12-07T13:37:07;14.02;;;6.75;;
78308;SDS011;67566;42.022;21.356;2023-12-07T13:39:32;11.77;;;6.45;;
78308;SDS011;67566;42.022;21.356;2023-12-07T13:41:59;10.90;;;6.68;;
78308;SDS011;67566;42.022;21.356;2023-12-07T13:44:25;6.75;;;4.43;;
78308;SDS011;67566;42.022;21.356;2023-12-07T13:46:51;10.02;;;6.20;;
78308;SDS011;67566;42.022;21.356;2023-12-07T13:49:19;15.48;;;9.48;;
78308;SDS011;67566;42.022;21.356;2023-12-07T13:51:45;10.50;;;6.07;;
78308;SDS011;67566;42.022;21.356;2023-12-07T13:54:11;12.65;;;7.28;;
78308;SDS011;67566;42.022;21.356;2023-12-07T13:56:37;9.18;;;6.22;;
78308;SDS011;67566;42.022;21.356;2023-12-07T13:59:02;11.38;;;6.85;;
78308;SDS011;67566;42.022;21.356;2023-12-07T14:01:28;11.95;;;7.72;;
78308;SDS011;67566;42.022;21.356;2023-12-07T14:03:57;9.82;;;6.68;;
78308;SDS011;67566;42.022;21.356;2023-12-07T14:06:23;14.35;;;9.15;;
78308;SDS011;67566;42.022;21.356;2023-12-07T14:08:49;11.70;;;7.05;;
78308;SDS011;67566;42.022;21.356;2023-12-07T14:11:15;13.80;;;8.93;;
78308;SDS011;67566;42.022;21.356;2023-12-07T14:13:41;9.60;;;6.00;;
78308;SDS011;67566;42.022;21.356;2023-12-07T14:16:07;12.45;;;8.52;;
78308;SDS011;67566;42.022;21.356;2023-12-07T14:18:33;13.73;;;7.60;;
78308;SDS011;67566;42.022;21.356;2023-12-07T14:20:59;16.45;;;10.60;;